sensor_id;sensor_type;location;lat;lon;timestamp;P1;durP1;ratioP1;P2;durP2;ratioP2
20173;SDS011;10246;50.620;7.232;2022-07-10T00:01:57;4.17;;;1.40;;
20173;SDS011;10246;50.620;7.232;2022-07-10T00:04:25;3.30;;;1.27;;
20173;SDS011;10246;50.620;7.232;2022-07-10T00:06:52;4.30;;;1.60;;
20173;SDS011;10246;50.620;7.232;2022-07-10T00:09:21;3.27;;;1.43;;
20173;SDS011;10246;50.620;7.232;2022-07-10T00:11:48;3.90;;;1.47;;
20173;SDS011;10246;50.620;7.232;2022-07-10T00:14:15;5.53;;;1.60;;
20173;SDS011;10246;50.620;7.232;2022-07-10T00:16:42;4.30;;;1.60;;
20173;SDS011;10246;50.620;7.232;2022-07-10T00:19:08;1.83;;;1.40;;
20173;SDS011;10246;50.620;7.232;2022-07-10T00:21:36;4.23;;;1.30;;
20173;SDS011;10246;50.620;7.232;2022-07-10T00:24:03;3.37;;;1.33;;
20173;SDS011;10246;50.620;7.232;2022-07-10T00:26:30;5.33;;;1.67;;
20173;SDS011;10246;50.620;7.232;2022-07-10T00:28:57;3.90;;;1.50;;
20173;SDS011;10246;50.620;7.232;2022-07-10T00:31:24;1.87;;;1.13;;
20173;SDS011;10246;50.620;7.232;2022-07-10T00:33:50;2.77;;;1.33;;
20173;SDS011;10246;50.620;7.232;2022-07-10T00:36:17;4.10;;;1.20;;
20173;SDS011;10246;50.620;7.232;2022-07-10T00:38:45;2.30;;;1.30;;
20173;SDS011;10246;50.620;7.232;2022-07-10T00:41:12;4.53;;;1.10;;
20173;SDS011;10246;50.620;7.232;2022-07-10T00:43:52;4.03;;;1.23;;
20173;SDS011;10246;50.620;7.232;2022-07-10T00:46:19;8.10;;;1.30;;
20173;SDS011;10246;50.620;7.232;2022-07-10T00:48:46;3.37;;;1.10;;
20173;SDS011;10246;50.620;7.232;2022-07-10T00:51:13;2.10;;;1.17;;
20173;SDS011;10246;50.620;7.232;2022-07-10T00:53:41;4.07;;;1.23;;
20173;SDS011;10246;50.620;7.232;2022-07-10T00:56:10;3.93;;;1.13;;
20173;SDS011;10246;50.620;7.232;2022-07-10T00:58:37;3.83;;;0.93;;
20173;SDS011;10246;50.620;7.232;2022-07-10T01:01:05;3.27;;;1.30;;
20173;SDS011;10246;50.620;7.232;2022-07-10T01:03:32;3.43;;;1.27;;
20173;SDS011;10246;50.620;7.232;2022-07-10T01:05:59;2.30;;;1.13;;
20173;SDS011;10246;50.620;7.232;2022-07-10T01:08:26;6.20;;;1.50;;
20173;SDS011;10246;50.620;7.232;2022-07-10T01:10:54;2.40;;;1.40;;
20173;SDS011;10246;50.620;7.232;2022-07-10T01:13:22;2.87;;;1.03;;
20173;SDS011;10246;50.620;7.232;2022-07-10T01:15:49;2.30;;;1.37;;
20173;SDS011;10246;50.620;7.232;2022-07-10T01:18:17;3.60;;;1.20;;
20173;SDS011;10246;50.620;7.232;2022-07-10T01:20:44;4.43;;;1.40;;
20173;SDS011;10246;50.620;7.232;2022-07-10T01:23:13;4.67;;;1.40;;
20173;SDS011;10246;50.620;7.232;2022-07-10T01:25:40;6.00;;;1.40;;
20173;SDS011;10246;50.620;7.232;2022-07-10T01:28:07;4.70;;;1.10;;
20173;SDS011;10246;50.620;7.232;2022-07-10T01:30:33;3.33;;;1.10;;
20173;SDS011;10246;50.620;7.232;2022-07-10T01:33:00;6.00;;;1.53;;
20173;SDS011;10246;50.620;7.232;2022-07-10T01:35:27;2.63;;;1.10;;
20173;SDS011;10246;50.620;7.232;2022-07-10T01:37:54;3.93;;;1.47;;
20173;SDS011;10246;50.620;7.232;2022-07-10T01:40:22;3.90;;;1.20;;
20173;SDS011;10246;50.620;7.232;2022-07-10T01:42:48;1.87;;;1.20;;
20173;SDS011;10246;50.620;7.232;2022-07-10T01:45:16;3.17;;;1.20;;
20173;SDS011;10246;50.620;7.232;2022-07-10T01:47:43;3.53;;;1.20;;
20173;SDS011;10246;50.620;7.232;2022-07-10T01:50:10;2.17;;;1.00;;
20173;SDS011;10246;50.620;7.232;2022-07-10T01:52:36;2.20;;;1.10;;
20173;SDS011;10246;50.620;7.232;2022-07-10T01:55:04;5.53;;;1.50;;
20173;SDS011;10246;50.620;7.232;2022-07-10T01:57:33;2.60;;;1.20;;
20173;SDS011;10246;50.620;7.232;2022-07-10T02:00:00;1.87;;;1.30;;
20173;SDS011;10246;50.620;7.232;2022-07-10T02:02:26;2.87;;;1.30;;
20173;SDS011;10246;50.620;7.232;2022-07-10T02:04:53;2.50;;;1.10;;
20173;SDS011;10246;50.620;7.232;2022-07-10T02:07:19;1.73;;;1.10;;
20173;SDS011;10246;50.620;7.232;2022-07-10T02:09:47;2.97;;;1.57;;
20173;SDS011;10246;50.620;7.232;2022-07-10T02:12:14;3.57;;;1.50;;
20173;SDS011;10246;50.620;7.232;2022-07-10T02:14:42;2.53;;;1.27;;
20173;SDS011;10246;50.620;7.232;2022-07-10T02:17:10;4.47;;;1.40;;
20173;SDS011;10246;50.620;7.232;2022-07-10T02:19:36;1.63;;;1.00;;
20173;SDS011;10246;50.620;7.232;2022-07-10T02:22:04;3.23;;;1.40;;
20173;SDS011;10246;50.620;7.232;2022-07-10T02:24:31;2.17;;;1.30;;
20173;SDS011;10246;50.620;7.232;2022-07-10T02:26:58;5.27;;;1.70;;
20173;SDS011;10246;50.620;7.232;2022-07-10T02:29:25;3.87;;;1.70;;
20173;SDS011;10246;50.620;7.232;2022-07-10T02:31:53;5.53;;;1.23;;
20173;SDS011;10246;50.620;7.232;2022-07-10T02:34:19;5.77;;;1.77;;
20173;SDS011;10246;50.620;7.232;2022-07-10T02:36:46;2.47;;;1.40;;
20173;SDS011;10246;50.620;7.232;2022-07-10T02:39:13;3.67;;;1.50;;
20173;SDS011;10246;50.620;7.232;2022-07-10T02:41:40;4.10;;;1.60;;
20173;SDS011;10246;50.620;7.232;2022-07-10T02:44:07;3.17;;;1.43;;
20173;SDS011;10246;50.620;7.232;2022-07-10T02:46:33;3.70;;;1.70;;
20173;SDS011;10246;50.620;7.232;2022-07-10T02:49:02;1.33;;;1.20;;
20173;SDS011;10246;50.620;7.232;2022-07-10T02:51:30;3.63;;;1.50;;
20173;SDS011;10246;50.620;7.232;2022-07-10T02:53:56;5.00;;;1.53;;
20173;SDS011;10246;50.620;7.232;2022-07-10T02:56:23;1.93;;;1.40;;
20173;SDS011;10246;50.620;7.232;2022-07-10T02:58:50;8.17;;;1.80;;
20173;SDS011;10246;50.620;7.232;2022-07-10T03:01:16;3.87;;;1.30;;
20173;SDS011;10246;50.620;7.232;2022-07-10T03:03:43;4.10;;;1.60;;
20173;SDS011;10246;50.620;7.232;2022-07-10T03:06:12;2.80;;;1.53;;
20173;SDS011;10246;50.620;7.232;2022-07-10T03:08:38;5.03;;;1.47;;
20173;SDS011;10246;50.620;7.232;2022-07-10T03:11:06;4.97;;;1.67;;
20173;SDS011;10246;50.620;7.232;2022-07-10T03:13:33;2.77;;;1.43;;
20173;SDS011;10246;50.620;7.232;2022-07-10T03:16:00;6.10;;;1.57;;
20173;SDS011;10246;50.620;7.232;2022-07-10T03:18:27;2.80;;;1.60;;
20173;SDS011;10246;50.620;7.232;2022-07-10T03:20:54;4.33;;;1.47;;
20173;SDS011;10246;50.620;7.232;2022-07-10T03:23:22;5.43;;;1.40;;
20173;SDS011;10246;50.620;7.232;2022-07-10T03:25:49;2.67;;;1.50;;
20173;SDS011;10246;50.620;7.232;2022-07-10T03:28:16;4.80;;;2.10;;
20173;SDS011;10246;50.620;7.232;2022-07-10T03:30:42;2.67;;;1.63;;
20173;SDS011;10246;50.620;7.232;2022-07-10T03:33:09;4.00;;;1.40;;
20173;SDS011;10246;50.620;7.232;2022-07-10T03:35:36;3.97;;;1.50;;
20173;SDS011;10246;50.620;7.232;2022-07-10T03:38:03;4.20;;;1.77;;
20173;SDS011;10246;50.620;7.232;2022-07-10T03:40:31;3.93;;;1.50;;
20173;SDS011;10246;50.620;7.232;2022-07-10T03:42:58;2.00;;;1.40;;
20173;SDS011;10246;50.620;7.232;2022-07-10T03:45:25;2.90;;;1.47;;
20173;SDS011;10246;50.620;7.232;2022-07-10T03:47:52;3.67;;;1.73;;
20173;SDS011;10246;50.620;7.232;2022-07-10T03:50:19;5.23;;;1.53;;
20173;SDS011;10246;50.620;7.232;2022-07-10T03:52:46;2.23;;;1.43;;
20173;SDS011;10246;50.620;7.232;2022-07-10T03:55:12;2.40;;;1.60;;
20173;SDS011;10246;50.620;7.232;2022-07-10T03:57:40;3.60;;;1.73;;
20173;SDS011;10246;50.620;7.232;2022-07-10T04:00:18;5.73;;;1.40;;
20173;SDS011;10246;50.620;7.232;2022-07-10T04:02:46;3.80;;;1.40;;
20173;SDS011;10246;50.620;7.232;2022-07-10T04:05:13;2.77;;;1.30;;
20173;SDS011;10246;50.620;7.232;2022-07-10T04:07:40;5.07;;;1.30;;
20173;SDS011;10246;50.620;7.232;2022-07-10T04:10:07;4.10;;;1.10;;
20173;SDS011;10246;50.620;7.232;2022-07-10T04:12:35;5.10;;;1.40;;
20173;SDS011;10246;50.620;7.232;2022-07-10T04:15:04;1.60;;;1.30;;
20173;SDS011;10246;50.620;7.232;2022-07-10T04:17:31;2.57;;;1.03;;
20173;SDS011;10246;50.620;7.232;2022-07-10T04:19:58;4.23;;;1.50;;
20173;SDS011;10246;50.620;7.232;2022-07-10T04:22:25;4.90;;;1.43;;
20173;SDS011;10246;50.620;7.232;2022-07-10T04:24:52;4.73;;;1.47;;
20173;SDS011;10246;50.620;7.232;2022-07-10T04:27:19;3.40;;;1.00;;
20173;SDS011;10246;50.620;7.232;2022-07-10T04:29:47;1.33;;;1.10;;
20173;SDS011;10246;50.620;7.232;2022-07-10T04:32:15;4.27;;;1.30;;
20173;SDS011;10246;50.620;7.232;2022-07-10T04:34:42;2.30;;;1.37;;
20173;SDS011;10246;50.620;7.232;2022-07-10T04:37:09;2.60;;;1.20;;
20173;SDS011;10246;50.620;7.232;2022-07-10T04:39:36;1.57;;;1.20;;
20173;SDS011;10246;50.620;7.232;2022-07-10T04:42:03;2.50;;;1.20;;
20173;SDS011;10246;50.620;7.232;2022-07-10T04:44:31;3.87;;;1.27;;
20173;SDS011;10246;50.620;7.232;2022-07-10T04:46:58;4.43;;;1.40;;
20173;SDS011;10246;50.620;7.232;2022-07-10T04:49:26;3.17;;;1.40;;
20173;SDS011;10246;50.620;7.232;2022-07-10T04:51:53;2.47;;;1.50;;
20173;SDS011;10246;50.620;7.232;2022-07-10T04:54:21;3.73;;;1.37;;
20173;SDS011;10246;50.620;7.232;2022-07-10T04:56:48;5.40;;;1.40;;
20173;SDS011;10246;50.620;7.232;2022-07-10T04:59:15;5.23;;;1.30;;
20173;SDS011;10246;50.620;7.232;2022-07-10T05:01:42;2.23;;;1.37;;
20173;SDS011;10246;50.620;7.232;2022-07-10T05:04:09;4.53;;;1.63;;
20173;SDS011;10246;50.620;7.232;2022-07-10T05:06:37;2.00;;;1.30;;
20173;SDS011;10246;50.620;7.232;2022-07-10T05:09:03;4.07;;;1.43;;
20173;SDS011;10246;50.620;7.232;2022-07-10T05:11:30;2.40;;;1.40;;
20173;SDS011;10246;50.620;7.232;2022-07-10T05:13:57;2.13;;;1.20;;
20173;SDS011;10246;50.620;7.232;2022-07-10T05:16:24;5.47;;;1.60;;
20173;SDS011;10246;50.620;7.232;2022-07-10T05:18:51;4.37;;;1.33;;
20173;SDS011;10246;50.620;7.232;2022-07-10T05:21:18;3.03;;;1.20;;
20173;SDS011;10246;50.620;7.232;2022-07-10T05:23:46;2.53;;;1.10;;
20173;SDS011;10246;50.620;7.232;2022-07-10T05:26:13;6.50;;;1.50;;
20173;SDS011;10246;50.620;7.232;2022-07-10T05:28:40;5.23;;;1.43;;
20173;SDS011;10246;50.620;7.232;2022-07-10T05:31:07;3.00;;;1.43;;
20173;SDS011;10246;50.620;7.232;2022-07-10T05:33:33;5.07;;;1.50;;
20173;SDS011;10246;50.620;7.232;2022-07-10T05:36:01;3.97;;;1.27;;
20173;SDS011;10246;50.620;7.232;2022-07-10T05:38:28;3.20;;;1.20;;
20173;SDS011;10246;50.620;7.232;2022-07-10T05:40:56;3.83;;;1.73;;
20173;SDS011;10246;50.620;7.232;2022-07-10T05:43:22;4.37;;;1.60;;
20173;SDS011;10246;50.620;7.232;2022-07-10T05:45:49;4.13;;;1.57;;
20173;SDS011;10246;50.620;7.232;2022-07-10T05:48:16;3.20;;;1.40;;
20173;SDS011;10246;50.620;7.232;2022-07-10T05:50:45;4.00;;;1.50;;
20173;SDS011;10246;50.620;7.232;2022-07-10T05:53:12;3.97;;;1.50;;
20173;SDS011;10246;50.620;7.232;2022-07-10T05:55:38;7.17;;;1.70;;
20173;SDS011;10246;50.620;7.232;2022-07-10T05:58:06;2.50;;;1.43;;
20173;SDS011;10246;50.620;7.232;2022-07-10T06:00:33;4.07;;;1.27;;
20173;SDS011;10246;50.620;7.232;2022-07-10T06:03:00;8.50;;;1.90;;
20173;SDS011;10246;50.620;7.232;2022-07-10T06:05:27;1.63;;;1.20;;
20173;SDS011;10246;50.620;7.232;2022-07-10T06:07:54;3.63;;;1.50;;
20173;SDS011;10246;50.620;7.232;2022-07-10T06:10:20;4.13;;;1.50;;
20173;SDS011;10246;50.620;7.232;2022-07-10T06:12:47;5.20;;;1.60;;
20173;SDS011;10246;50.620;7.232;2022-07-10T06:15:15;4.40;;;1.50;;
20173;SDS011;10246;50.620;7.232;2022-07-10T06:17:42;6.70;;;1.63;;
20173;SDS011;10246;50.620;7.232;2022-07-10T06:20:09;6.80;;;1.57;;
20173;SDS011;10246;50.620;7.232;2022-07-10T06:22:36;5.93;;;1.87;;
20173;SDS011;10246;50.620;7.232;2022-07-10T06:25:05;5.47;;;1.80;;
20173;SDS011;10246;50.620;7.232;2022-07-10T06:27:33;5.20;;;2.27;;
20173;SDS011;10246;50.620;7.232;2022-07-10T06:30:00;8.87;;;2.43;;
20173;SDS011;10246;50.620;7.232;2022-07-10T06:32:28;5.00;;;1.80;;
20173;SDS011;10246;50.620;7.232;2022-07-10T06:34:55;5.03;;;2.00;;
20173;SDS011;10246;50.620;7.232;2022-07-10T06:37:22;4.70;;;1.93;;
20173;SDS011;10246;50.620;7.232;2022-07-10T06:39:49;7.67;;;1.73;;
20173;SDS011;10246;50.620;7.232;2022-07-10T06:42:16;5.53;;;1.60;;
20173;SDS011;10246;50.620;7.232;2022-07-10T06:44:43;2.30;;;1.20;;
20173;SDS011;10246;50.620;7.232;2022-07-10T06:47:10;3.33;;;1.40;;
20173;SDS011;10246;50.620;7.232;2022-07-10T06:49:57;3.23;;;1.17;;
20173;SDS011;10246;50.620;7.232;2022-07-10T06:52:25;2.30;;;1.03;;
20173;SDS011;10246;50.620;7.232;2022-07-10T06:54:52;7.13;;;1.40;;
20173;SDS011;10246;50.620;7.232;2022-07-10T06:57:21;5.30;;;1.30;;
20173;SDS011;10246;50.620;7.232;2022-07-10T06:59:48;2.80;;;1.40;;
20173;SDS011;10246;50.620;7.232;2022-07-10T07:02:14;4.30;;;1.53;;
20173;SDS011;10246;50.620;7.232;2022-07-10T07:04:41;5.83;;;1.60;;
20173;SDS011;10246;50.620;7.232;2022-07-10T07:07:11;5.33;;;1.60;;
20173;SDS011;10246;50.620;7.232;2022-07-10T07:09:37;6.60;;;1.90;;
20173;SDS011;10246;50.620;7.232;2022-07-10T07:12:05;5.40;;;1.83;;
20173;SDS011;10246;50.620;7.232;2022-07-10T07:14:33;3.43;;;1.90;;
20173;SDS011;10246;50.620;7.232;2022-07-10T07:17:06;5.53;;;1.73;;
20173;SDS011;10246;50.620;7.232;2022-07-10T07:19:34;4.50;;;1.63;;
20173;SDS011;10246;50.620;7.232;2022-07-10T07:22:20;7.77;;;1.83;;
20173;SDS011;10246;50.620;7.232;2022-07-10T07:25:05;7.30;;;2.17;;
20173;SDS011;10246;50.620;7.232;2022-07-10T07:27:33;6.93;;;1.93;;
20173;SDS011;10246;50.620;7.232;2022-07-10T07:30:01;4.20;;;1.83;;
20173;SDS011;10246;50.620;7.232;2022-07-10T07:32:29;3.03;;;1.63;;
20173;SDS011;10246;50.620;7.232;2022-07-10T07:34:56;5.03;;;1.70;;
20173;SDS011;10246;50.620;7.232;2022-07-10T07:37:24;5.10;;;1.93;;
20173;SDS011;10246;50.620;7.232;2022-07-10T07:40:01;3.40;;;1.70;;
20173;SDS011;10246;50.620;7.232;2022-07-10T07:42:28;3.77;;;1.97;;
20173;SDS011;10246;50.620;7.232;2022-07-10T07:44:54;3.60;;;2.43;;
20173;SDS011;10246;50.620;7.232;2022-07-10T07:47:21;3.57;;;2.30;;
20173;SDS011;10246;50.620;7.232;2022-07-10T07:49:48;4.17;;;2.50;;
20173;SDS011;10246;50.620;7.232;2022-07-10T07:52:14;4.47;;;2.70;;
20173;SDS011;10246;50.620;7.232;2022-07-10T07:54:42;4.17;;;2.50;;
20173;SDS011;10246;50.620;7.232;2022-07-10T07:57:10;6.30;;;2.77;;
20173;SDS011;10246;50.620;7.232;2022-07-10T07:59:37;4.83;;;2.57;;
20173;SDS011;10246;50.620;7.232;2022-07-10T08:02:04;6.83;;;2.83;;
20173;SDS011;10246;50.620;7.232;2022-07-10T08:04:31;5.60;;;3.10;;
20173;SDS011;10246;50.620;7.232;2022-07-10T08:06:58;6.27;;;3.40;;
20173;SDS011;10246;50.620;7.232;2022-07-10T08:09:27;4.60;;;2.93;;
20173;SDS011;10246;50.620;7.232;2022-07-10T08:11:55;7.33;;;2.80;;
20173;SDS011;10246;50.620;7.232;2022-07-10T08:14:22;6.70;;;2.50;;
20173;SDS011;10246;50.620;7.232;2022-07-10T08:16:48;3.30;;;1.90;;
20173;SDS011;10246;50.620;7.232;2022-07-10T08:19:15;2.97;;;2.07;;
20173;SDS011;10246;50.620;7.232;2022-07-10T08:21:42;4.60;;;2.10;;
20173;SDS011;10246;50.620;7.232;2022-07-10T08:24:10;4.90;;;2.10;;
20173;SDS011;10246;50.620;7.232;2022-07-10T08:26:36;3.87;;;1.90;;
20173;SDS011;10246;50.620;7.232;2022-07-10T08:29:05;5.90;;;2.00;;
20173;SDS011;10246;50.620;7.232;2022-07-10T08:31:31;2.93;;;1.60;;
20173;SDS011;10246;50.620;7.232;2022-07-10T08:33:59;3.37;;;2.03;;
20173;SDS011;10246;50.620;7.232;2022-07-10T08:36:26;2.50;;;1.30;;
20173;SDS011;10246;50.620;7.232;2022-07-10T08:38:52;5.17;;;1.60;;
20173;SDS011;10246;50.620;7.232;2022-07-10T08:41:20;3.17;;;1.70;;
20173;SDS011;10246;50.620;7.232;2022-07-10T08:43:52;3.40;;;1.77;;
20173;SDS011;10246;50.620;7.232;2022-07-10T08:46:20;3.87;;;1.80;;
20173;SDS011;10246;50.620;7.232;2022-07-10T08:48:47;5.53;;;1.73;;
20173;SDS011;10246;50.620;7.232;2022-07-10T08:51:16;3.63;;;1.50;;
20173;SDS011;10246;50.620;7.232;2022-07-10T08:53:50;4.03;;;2.03;;
20173;SDS011;10246;50.620;7.232;2022-07-10T08:56:18;3.97;;;1.77;;
20173;SDS011;10246;50.620;7.232;2022-07-10T08:58:44;3.07;;;1.43;;
20173;SDS011;10246;50.620;7.232;2022-07-10T09:01:13;2.60;;;1.63;;
20173;SDS011;10246;50.620;7.232;2022-07-10T09:03:41;2.77;;;1.53;;
20173;SDS011;10246;50.620;7.232;2022-07-10T09:06:10;3.47;;;1.47;;
20173;SDS011;10246;50.620;7.232;2022-07-10T09:08:37;3.17;;;1.70;;
20173;SDS011;10246;50.620;7.232;2022-07-10T09:11:13;3.67;;;1.73;;
20173;SDS011;10246;50.620;7.232;2022-07-10T09:13:48;2.27;;;1.60;;
20173;SDS011;10246;50.620;7.232;2022-07-10T09:16:20;5.47;;;1.50;;
20173;SDS011;10246;50.620;7.232;2022-07-10T09:18:49;3.47;;;1.40;;
20173;SDS011;10246;50.620;7.232;2022-07-10T09:21:16;4.77;;;1.67;;
20173;SDS011;10246;50.620;7.232;2022-07-10T09:23:43;2.53;;;1.50;;
20173;SDS011;10246;50.620;7.232;2022-07-10T09:26:09;4.43;;;1.97;;
20173;SDS011;10246;50.620;7.232;2022-07-10T09:28:37;3.83;;;1.80;;
20173;SDS011;10246;50.620;7.232;2022-07-10T09:31:04;4.87;;;1.97;;
20173;SDS011;10246;50.620;7.232;2022-07-10T09:33:31;4.67;;;1.90;;
20173;SDS011;10246;50.620;7.232;2022-07-10T09:36:01;3.00;;;1.90;;
20173;SDS011;10246;50.620;7.232;2022-07-10T09:38:47;3.10;;;1.87;;
20173;SDS011;10246;50.620;7.232;2022-07-10T09:41:19;3.00;;;2.17;;
20173;SDS011;10246;50.620;7.232;2022-07-10T09:43:51;2.87;;;2.10;;
20173;SDS011;10246;50.620;7.232;2022-07-10T09:46:19;3.03;;;2.03;;
20173;SDS011;10246;50.620;7.232;2022-07-10T09:48:47;3.23;;;1.87;;
20173;SDS011;10246;50.620;7.232;2022-07-10T09:51:15;5.17;;;2.07;;
20173;SDS011;10246;50.620;7.232;2022-07-10T09:53:43;5.33;;;2.23;;
20173;SDS011;10246;50.620;7.232;2022-07-10T09:56:11;2.87;;;2.03;;
20173;SDS011;10246;50.620;7.232;2022-07-10T09:58:40;3.27;;;1.77;;
20173;SDS011;10246;50.620;7.232;2022-07-10T10:01:17;2.87;;;2.23;;
20173;SDS011;10246;50.620;7.232;2022-07-10T10:03:52;5.17;;;2.10;;
20173;SDS011;10246;50.620;7.232;2022-07-10T10:06:30;4.20;;;2.37;;
20173;SDS011;10246;50.620;7.232;2022-07-10T10:09:12;2.90;;;2.60;;
20173;SDS011;10246;50.620;7.232;2022-07-10T10:11:45;6.43;;;2.80;;
20173;SDS011;10246;50.620;7.232;2022-07-10T10:14:20;6.23;;;2.60;;
20173;SDS011;10246;50.620;7.232;2022-07-10T10:17:01;5.93;;;2.57;;
20173;SDS011;10246;50.620;7.232;2022-07-10T10:19:37;6.00;;;2.90;;
20173;SDS011;10246;50.620;7.232;2022-07-10T10:22:30;3.33;;;2.70;;
20173;SDS011;10246;50.620;7.232;2022-07-10T10:25:17;4.43;;;2.97;;
20173;SDS011;10246;50.620;7.232;2022-07-10T10:30:40;3.13;;;2.80;;
20173;SDS011;10246;50.620;7.232;2022-07-10T10:39:25;7.67;;;3.30;;
20173;SDS011;10246;50.620;7.232;2022-07-10T10:42:21;5.27;;;2.83;;
20173;SDS011;10246;50.620;7.232;2022-07-10T10:45:33;4.77;;;3.10;;
20173;SDS011;10246;50.620;7.232;2022-07-10T10:48:07;5.33;;;3.30;;
20173;SDS011;10246;50.620;7.232;2022-07-10T10:50:48;3.60;;;3.00;;
20173;SDS011;10246;50.620;7.232;2022-07-10T10:53:24;4.17;;;3.23;;
20173;SDS011;10246;50.620;7.232;2022-07-10T10:58:59;5.27;;;3.00;;
20173;SDS011;10246;50.620;7.232;2022-07-10T11:01:27;4.97;;;4.40;;
20173;SDS011;10246;50.620;7.232;2022-07-10T11:04:15;3.97;;;3.57;;
20173;SDS011;10246;50.620;7.232;2022-07-10T11:06:51;3.97;;;3.53;;
20173;SDS011;10246;50.620;7.232;2022-07-10T11:09:23;8.00;;;4.10;;
20173;SDS011;10246;50.620;7.232;2022-07-10T11:12:03;5.17;;;3.93;;
20173;SDS011;10246;50.620;7.232;2022-07-10T11:14:37;6.53;;;4.50;;
20173;SDS011;10246;50.620;7.232;2022-07-10T11:17:25;6.33;;;4.30;;
20173;SDS011;10246;50.620;7.232;2022-07-10T11:20:06;7.67;;;4.30;;
20173;SDS011;10246;50.620;7.232;2022-07-10T11:22:47;5.70;;;4.00;;
20173;SDS011;10246;50.620;7.232;2022-07-10T11:25:30;4.63;;;3.80;;
20173;SDS011;10246;50.620;7.232;2022-07-10T11:28:21;4.93;;;3.93;;
20173;SDS011;10246;50.620;7.232;2022-07-10T11:31:04;5.67;;;4.17;;
20173;SDS011;10246;50.620;7.232;2022-07-10T11:33:50;6.47;;;3.97;;
20173;SDS011;10246;50.620;7.232;2022-07-10T11:36:24;5.20;;;3.77;;
20173;SDS011;10246;50.620;7.232;2022-07-10T11:39:09;4.37;;;3.67;;
20173;SDS011;10246;50.620;7.232;2022-07-10T11:41:45;5.40;;;3.63;;
20173;SDS011;10246;50.620;7.232;2022-07-10T11:44:30;3.50;;;3.20;;
20173;SDS011;10246;50.620;7.232;2022-07-10T11:47:08;4.97;;;3.43;;
20173;SDS011;10246;50.620;7.232;2022-07-10T11:49:46;3.47;;;2.60;;
20173;SDS011;10246;50.620;7.232;2022-07-10T11:52:36;5.23;;;2.70;;
20173;SDS011;10246;50.620;7.232;2022-07-10T11:55:15;4.40;;;2.30;;
20173;SDS011;10246;50.620;7.232;2022-07-10T11:57:54;3.10;;;1.90;;
20173;SDS011;10246;50.620;7.232;2022-07-10T12:00:40;3.13;;;2.00;;
20173;SDS011;10246;50.620;7.232;2022-07-10T12:06:33;2.67;;;2.10;;
20173;SDS011;10246;50.620;7.232;2022-07-10T12:09:15;3.57;;;2.63;;
20173;SDS011;10246;50.620;7.232;2022-07-10T12:11:59;4.80;;;2.90;;
20173;SDS011;10246;50.620;7.232;2022-07-10T12:14:38;6.40;;;2.40;;
20173;SDS011;10246;50.620;7.232;2022-07-10T12:17:13;6.93;;;2.67;;
20173;SDS011;10246;50.620;7.232;2022-07-10T12:19:47;3.40;;;2.30;;
20173;SDS011;10246;50.620;7.232;2022-07-10T12:22:20;3.03;;;2.07;;
20173;SDS011;10246;50.620;7.232;2022-07-10T12:24:57;5.00;;;2.00;;
20173;SDS011;10246;50.620;7.232;2022-07-10T12:30:41;2.07;;;1.83;;
20173;SDS011;10246;50.620;7.232;2022-07-10T12:33:13;3.57;;;1.83;;
20173;SDS011;10246;50.620;7.232;2022-07-10T12:35:51;2.80;;;1.80;;
20173;SDS011;10246;50.620;7.232;2022-07-10T12:38:34;3.10;;;1.70;;
20173;SDS011;10246;50.620;7.232;2022-07-10T12:41:06;3.33;;;1.80;;
20173;SDS011;10246;50.620;7.232;2022-07-10T12:43:37;4.47;;;2.17;;
20173;SDS011;10246;50.620;7.232;2022-07-10T12:46:25;3.37;;;2.20;;
20173;SDS011;10246;50.620;7.232;2022-07-10T12:49:11;3.10;;;2.30;;
20173;SDS011;10246;50.620;7.232;2022-07-10T12:51:48;6.23;;;2.60;;
20173;SDS011;10246;50.620;7.232;2022-07-10T12:54:32;7.53;;;3.43;;
20173;SDS011;10246;50.620;7.232;2022-07-10T12:57:04;4.03;;;3.10;;
20173;SDS011;10246;50.620;7.232;2022-07-10T12:59:38;5.37;;;2.67;;
20173;SDS011;10246;50.620;7.232;2022-07-10T13:02:16;3.33;;;2.27;;
20173;SDS011;10246;50.620;7.232;2022-07-10T13:05:04;3.60;;;2.60;;
20173;SDS011;10246;50.620;7.232;2022-07-10T13:07:32;4.73;;;2.87;;
20173;SDS011;10246;50.620;7.232;2022-07-10T13:10:11;4.43;;;2.47;;
20173;SDS011;10246;50.620;7.232;2022-07-10T13:12:56;4.27;;;2.60;;
20173;SDS011;10246;50.620;7.232;2022-07-10T13:15:35;3.63;;;2.17;;
20173;SDS011;10246;50.620;7.232;2022-07-10T13:18:12;6.17;;;2.40;;
20173;SDS011;10246;50.620;7.232;2022-07-10T13:20:54;3.53;;;2.53;;
20173;SDS011;10246;50.620;7.232;2022-07-10T13:23:27;5.20;;;2.90;;
20173;SDS011;10246;50.620;7.232;2022-07-10T13:26:03;6.50;;;2.83;;
20173;SDS011;10246;50.620;7.232;2022-07-10T13:28:46;5.30;;;3.27;;
20173;SDS011;10246;50.620;7.232;2022-07-10T13:31:20;4.80;;;2.50;;
20173;SDS011;10246;50.620;7.232;2022-07-10T13:33:47;4.07;;;1.97;;
20173;SDS011;10246;50.620;7.232;2022-07-10T13:36:36;3.33;;;2.20;;
20173;SDS011;10246;50.620;7.232;2022-07-10T13:39:08;3.87;;;1.93;;
20173;SDS011;10246;50.620;7.232;2022-07-10T13:41:39;3.67;;;2.10;;
20173;SDS011;10246;50.620;7.232;2022-07-10T13:44:16;5.87;;;2.27;;
20173;SDS011;10246;50.620;7.232;2022-07-10T13:46:45;3.97;;;2.07;;
20173;SDS011;10246;50.620;7.232;2022-07-10T13:49:18;3.90;;;2.20;;
20173;SDS011;10246;50.620;7.232;2022-07-10T13:51:51;4.07;;;2.00;;
20173;SDS011;10246;50.620;7.232;2022-07-10T13:54:20;4.03;;;2.50;;
20173;SDS011;10246;50.620;7.232;2022-07-10T13:56:57;5.43;;;2.63;;
20173;SDS011;10246;50.620;7.232;2022-07-10T13:59:44;4.57;;;2.43;;
20173;SDS011;10246;50.620;7.232;2022-07-10T14:02:17;4.50;;;2.70;;
20173;SDS011;10246;50.620;7.232;2022-07-10T14:04:47;3.83;;;2.43;;
20173;SDS011;10246;50.620;7.232;2022-07-10T14:07:20;8.70;;;2.80;;
20173;SDS011;10246;50.620;7.232;2022-07-10T14:09:50;5.30;;;2.90;;
20173;SDS011;10246;50.620;7.232;2022-07-10T14:12:17;4.53;;;3.23;;
20173;SDS011;10246;50.620;7.232;2022-07-10T14:14:47;4.40;;;3.17;;
20173;SDS011;10246;50.620;7.232;2022-07-10T14:17:16;3.10;;;2.67;;
20173;SDS011;10246;50.620;7.232;2022-07-10T14:19:50;3.97;;;2.33;;
20173;SDS011;10246;50.620;7.232;2022-07-10T14:22:28;4.87;;;3.07;;
20173;SDS011;10246;50.620;7.232;2022-07-10T14:24:58;4.73;;;3.10;;
20173;SDS011;10246;50.620;7.232;2022-07-10T14:27:35;4.70;;;2.63;;
20173;SDS011;10246;50.620;7.232;2022-07-10T14:30:09;5.40;;;2.77;;
20173;SDS011;10246;50.620;7.232;2022-07-10T14:32:49;3.67;;;2.50;;
20173;SDS011;10246;50.620;7.232;2022-07-10T14:35:23;4.57;;;2.50;;
20173;SDS011;10246;50.620;7.232;2022-07-10T14:38:06;4.57;;;2.47;;
20173;SDS011;10246;50.620;7.232;2022-07-10T14:40:36;5.07;;;2.30;;
20173;SDS011;10246;50.620;7.232;2022-07-10T14:43:06;4.47;;;2.10;;
20173;SDS011;10246;50.620;7.232;2022-07-10T14:45:49;3.30;;;2.23;;
20173;SDS011;10246;50.620;7.232;2022-07-10T14:48:34;2.30;;;1.80;;
20173;SDS011;10246;50.620;7.232;2022-07-10T14:51:15;4.27;;;1.90;;
20173;SDS011;10246;50.620;7.232;2022-07-10T14:53:56;3.67;;;1.90;;
20173;SDS011;10246;50.620;7.232;2022-07-10T14:56:37;3.00;;;2.00;;
20173;SDS011;10246;50.620;7.232;2022-07-10T14:59:17;4.60;;;2.10;;
20173;SDS011;10246;50.620;7.232;2022-07-10T15:01:52;2.77;;;2.00;;
20173;SDS011;10246;50.620;7.232;2022-07-10T15:04:37;3.63;;;1.97;;
20173;SDS011;10246;50.620;7.232;2022-07-10T15:07:13;2.77;;;1.90;;
20173;SDS011;10246;50.620;7.232;2022-07-10T15:09:45;4.67;;;2.33;;
20173;SDS011;10246;50.620;7.232;2022-07-10T15:12:20;2.87;;;1.90;;
20173;SDS011;10246;50.620;7.232;2022-07-10T15:15:16;2.87;;;1.73;;
20173;SDS011;10246;50.620;7.232;2022-07-10T15:17:51;2.80;;;1.90;;
20173;SDS011;10246;50.620;7.232;2022-07-10T15:20:24;2.83;;;2.20;;
20173;SDS011;10246;50.620;7.232;2022-07-10T15:23:06;4.10;;;2.00;;
20173;SDS011;10246;50.620;7.232;2022-07-10T15:25:45;3.80;;;2.03;;
20173;SDS011;10246;50.620;7.232;2022-07-10T15:28:36;2.63;;;1.87;;
20173;SDS011;10246;50.620;7.232;2022-07-10T15:31:06;2.63;;;1.90;;